Terminal Aerodrome Forecast
Issued by NWS Bismarck, ND

Home | Current Version | Previous Version | Text Only | Print | Product List | Glossary Off
Versions: 1 2 3 4 5 6 7 8 9 10 11 12 13 14 15 16 17

000
FTUS43 KBIS 192331
TAFBIS
TAF
KBIS 192331Z 2000/2024 29011KT P6SM VCSH SCT060 OVC110
     FM200900 27008KT P6SM SCT200
     FM201700 21015G23KT P6SM FEW250=

USA.gov is the U.S. government's official web portal to all federal, state and local government web resources and services.